createdAt,value
2019-04-28T00:01:56.890Z,99.90
2019-04-28T00:04:23.179Z,99.90
2019-04-28T00:06:51.576Z,99.90
2019-04-28T00:09:24.071Z,99.90
2019-04-28T00:11:52.048Z,99.90
2019-04-28T00:14:21.919Z,99.90
2019-04-28T00:16:51.021Z,99.90
2019-04-28T00:19:18.421Z,99.90
2019-04-28T00:21:46.772Z,99.90
2019-04-28T00:24:15.073Z,99.90
2019-04-28T00:26:55.019Z,99.90
2019-04-28T00:29:37.317Z,99.90
2019-04-28T00:31:53.158Z,99.90
2019-04-28T00:34:22.541Z,99.90
2019-04-28T00:36:51.901Z,99.90
2019-04-28T00:39:18.607Z,99.90
2019-04-28T00:41:44.828Z,99.90
2019-04-28T00:44:11.957Z,99.90
2019-04-28T00:46:41.794Z,99.90
2019-04-28T00:49:11.859Z,99.90
2019-04-28T00:51:43.018Z,99.90
2019-04-28T00:54:09.477Z,99.90
2019-04-28T00:56:36.814Z,99.90
2019-04-28T00:59:04.641Z,99.90
2019-04-28T01:01:36.090Z,99.90
2019-04-28T01:04:02.582Z,99.90
2019-04-28T01:06:29.408Z,99.90
2019-04-28T01:08:55.783Z,99.90
2019-04-28T01:11:22.326Z,99.90
2019-04-28T01:13:48.602Z,99.90
2019-04-28T01:16:24.375Z,99.90
2019-04-28T01:18:52.982Z,99.90
2019-04-28T01:21:20.329Z,99.90
2019-04-28T01:23:47.003Z,99.90
2019-04-28T01:26:20.885Z,99.90
2019-04-28T01:28:49.679Z,99.90
2019-04-28T01:31:21.217Z,99.90
2019-04-28T01:34:10.294Z,99.90
2019-04-28T01:36:39.999Z,99.90
2019-04-28T01:39:10.698Z,99.90
2019-04-28T01:41:43.316Z,99.90
2019-04-28T01:44:19.666Z,99.90
2019-04-28T01:46:52.562Z,99.90
2019-04-28T01:49:34.344Z,99.90
2019-04-28T01:52:01.259Z,99.90
2019-04-28T01:54:30.081Z,99.90
2019-04-28T01:56:58.589Z,99.90
2019-04-28T01:59:32.628Z,99.90
2019-04-28T02:02:00.138Z,99.90
2019-04-28T02:04:27.077Z,99.90
2019-04-28T02:06:53.330Z,99.90
2019-04-28T02:09:19.889Z,99.90
2019-04-28T02:11:46.194Z,99.90
2019-04-28T02:14:12.947Z,99.90
2019-04-28T02:16:40.485Z,99.90
2019-04-28T02:19:06.885Z,99.90
2019-04-28T02:21:39.548Z,99.90
2019-04-28T02:24:25.041Z,99.90
2019-04-28T02:26:52.700Z,99.90
2019-04-28T02:29:20.187Z,99.90
2019-04-28T02:31:46.608Z,99.90
2019-04-28T02:34:13.081Z,99.90
2019-04-28T02:36:40.772Z,99.90
2019-04-28T02:39:10.593Z,99.90
2019-04-28T02:41:36.638Z,99.90
2019-04-28T02:44:03.065Z,99.90
2019-04-28T02:46:30.862Z,99.90
2019-04-28T02:49:05.692Z,99.90
2019-04-28T02:51:59.996Z,99.90
2019-04-28T02:54:31.638Z,99.90
2019-04-28T02:57:01.341Z,99.90
2019-04-28T02:59:32.430Z,99.90
2019-04-28T03:02:03.698Z,99.90
2019-04-28T03:04:40.842Z,99.90
2019-04-28T03:07:11.437Z,99.90
2019-04-28T03:09:36.915Z,99.90
2019-04-28T03:12:04.310Z,99.90
2019-04-28T03:14:30.860Z,99.90
2019-04-28T03:17:00.663Z,99.90
2019-04-28T03:19:26.605Z,99.90
2019-04-28T03:21:53.939Z,99.90
2019-04-28T03:24:21.372Z,99.90
2019-04-28T03:26:50.923Z,99.90
2019-04-28T03:29:36.097Z,99.90
2019-04-28T03:32:37.403Z,99.90
2019-04-28T03:34:54.173Z,99.90
2019-04-28T03:37:26.314Z,99.90
2019-04-28T03:39:52.582Z,99.90
2019-04-28T03:42:31.543Z,99.90
2019-04-28T03:45:01.176Z,99.90
2019-04-28T03:47:31.266Z,99.90
2019-04-28T03:49:57.007Z,99.90
2019-04-28T03:52:23.356Z,99.90
2019-04-28T03:54:57.009Z,99.90
2019-04-28T03:57:23.374Z,99.90
2019-04-28T03:59:51.126Z,99.90
2019-04-28T04:02:23.030Z,99.90
2019-04-28T04:04:46.318Z,99.90
2019-04-28T04:07:12.794Z,99.90
2019-04-28T04:09:46.954Z,99.90
2019-04-28T04:12:21.283Z,99.90
2019-04-28T04:15:00.791Z,99.90
2019-04-28T04:17:34.422Z,99.90
2019-04-28T04:20:01.810Z,99.90
2019-04-28T04:22:28.357Z,99.90
2019-04-28T04:24:56.605Z,99.90
2019-04-28T04:27:24.111Z,99.90
2019-04-28T04:29:51.028Z,99.90
2019-04-28T04:32:24.222Z,99.90
2019-04-28T04:34:46.411Z,99.90
2019-04-28T04:37:12.822Z,99.90
2019-04-28T04:39:41.373Z,99.90
2019-04-28T04:42:10.519Z,99.90
2019-04-28T04:44:38.764Z,99.90
2019-04-28T04:47:05.234Z,99.90
2019-04-28T04:49:32.641Z,99.90
2019-04-28T04:52:00.420Z,99.90
2019-04-28T04:54:36.782Z,99.90
2019-04-28T04:57:03.476Z,99.90
2019-04-28T04:59:32.827Z,99.90
2019-04-28T05:02:27.663Z,99.90
2019-04-28T05:04:46.321Z,99.90
2019-04-28T05:07:12.942Z,99.90
2019-04-28T05:09:39.519Z,99.90
2019-04-28T05:12:06.009Z,99.90
2019-04-28T05:14:39.462Z,99.90
2019-04-28T05:17:05.853Z,99.90
2019-04-28T05:19:32.081Z,99.90
2019-04-28T05:22:05.843Z,99.90
2019-04-28T05:24:40.343Z,99.90
2019-04-28T05:27:26.927Z,99.90
2019-04-28T05:29:56.815Z,99.90
2019-04-28T05:32:22.012Z,99.90
2019-04-28T05:34:50.648Z,99.90
2019-04-28T05:37:21.208Z,99.90
2019-04-28T05:39:49.698Z,99.90
2019-04-28T05:42:15.932Z,99.90
2019-04-28T05:44:42.295Z,99.90
2019-04-28T05:47:09.954Z,99.90
2019-04-28T05:49:56.805Z,99.90
2019-04-28T05:52:34.818Z,99.90
2019-04-28T05:55:14.603Z,99.90
2019-04-28T05:57:55.590Z,99.90
2019-04-28T06:00:30.002Z,99.90
2019-04-28T06:03:01.206Z,99.90
2019-04-28T06:05:27.552Z,99.90
2019-04-28T06:08:01.604Z,99.90
2019-04-28T06:10:29.902Z,99.90
2019-04-28T06:12:56.558Z,99.90
2019-04-28T06:15:22.927Z,99.90
2019-04-28T06:17:50.221Z,99.90
2019-04-28T06:20:16.802Z,99.90
2019-04-28T06:22:50.635Z,99.90
2019-04-28T06:25:16.881Z,99.90
2019-04-28T06:27:43.233Z,99.90
2019-04-28T06:30:10.000Z,99.90
2019-04-28T06:32:36.242Z,99.90
2019-04-28T06:35:04.730Z,99.90
2019-04-28T06:37:31.341Z,99.90
2019-04-28T06:39:59.917Z,99.90
2019-04-28T06:42:26.430Z,99.90
2019-04-28T06:44:52.703Z,99.90
2019-04-28T06:47:19.086Z,99.90
2019-04-28T06:49:45.610Z,99.90
2019-04-28T06:52:13.085Z,99.90
2019-04-28T06:54:41.734Z,99.90
2019-04-28T06:57:08.001Z,99.90
2019-04-28T06:59:34.563Z,99.90
2019-04-28T07:02:03.038Z,99.90
2019-04-28T07:04:29.291Z,99.90
2019-04-28T07:07:00.866Z,99.90
2019-04-28T07:09:28.433Z,99.90
2019-04-28T07:11:55.830Z,99.90
2019-04-28T07:14:23.436Z,99.90
2019-04-28T07:16:58.313Z,99.90
2019-04-28T07:19:28.814Z,99.90
2019-04-28T07:21:59.987Z,99.90
2019-04-28T07:24:26.596Z,99.90
2019-04-28T07:26:53.207Z,99.90
2019-04-28T07:29:19.473Z,99.90
2019-04-28T07:31:46.217Z,99.90
2019-04-28T07:34:14.642Z,99.90
2019-04-28T07:36:40.985Z,99.90
2019-04-28T07:39:07.570Z,99.90
2019-04-28T07:41:34.300Z,99.90
2019-04-28T07:44:00.608Z,99.90
2019-04-28T07:46:33.973Z,99.90
2019-04-28T07:49:00.307Z,99.90
2019-04-28T07:51:43.304Z,99.90
2019-04-28T07:54:13.902Z,99.90
2019-04-28T07:56:40.649Z,99.90
2019-04-28T07:59:07.029Z,99.90
2019-04-28T08:01:33.567Z,99.90
2019-04-28T08:04:11.774Z,99.90
2019-04-28T08:06:39.477Z,99.90
2019-04-28T08:09:07.804Z,99.90
2019-04-28T08:11:36.078Z,99.90
2019-04-28T08:14:02.361Z,99.90
2019-04-28T08:16:28.598Z,99.90
2019-04-28T08:18:54.831Z,99.90
2019-04-28T08:21:22.174Z,99.90
2019-04-28T08:23:48.558Z,99.90
2019-04-28T08:26:15.353Z,99.90
2019-04-28T08:28:43.168Z,96.60
2019-04-28T08:31:14.574Z,84.30
2019-04-28T08:33:43.395Z,78.90
2019-04-28T08:36:22.995Z,75.10
2019-04-28T08:38:49.856Z,79.10
2019-04-28T08:41:16.414Z,78.70
2019-04-28T08:43:44.210Z,88.90
2019-04-28T08:46:23.943Z,90.30
2019-04-28T08:48:59.128Z,86.70
2019-04-28T08:51:27.578Z,90.20
2019-04-28T08:53:53.789Z,85.00
2019-04-28T08:56:20.394Z,77.60
2019-04-28T08:58:48.924Z,67.00
2019-04-28T09:01:15.229Z,71.90
2019-04-28T09:03:42.833Z,76.10
2019-04-28T09:06:16.609Z,79.00
2019-04-28T09:08:42.833Z,79.80
2019-04-28T09:11:09.440Z,81.50
2019-04-28T09:13:35.969Z,83.20
2019-04-28T09:16:03.800Z,95.10
2019-04-28T09:18:31.112Z,90.50
2019-04-28T09:20:58.432Z,79.30
2019-04-28T09:23:26.268Z,74.30
2019-04-28T09:25:53.162Z,67.70
2019-04-28T09:28:19.604Z,65.40
2019-04-28T09:30:46.048Z,64.00
2019-04-28T09:33:12.460Z,67.30
2019-04-28T09:35:39.989Z,65.30
2019-04-28T09:38:08.282Z,67.70
2019-04-28T09:40:34.645Z,67.30
2019-04-28T09:43:03.249Z,74.90
2019-04-28T09:45:32.645Z,70.30
2019-04-28T09:48:00.271Z,77.00
2019-04-28T09:50:37.658Z,70.40
2019-04-28T09:53:04.689Z,66.50
2019-04-28T09:55:34.165Z,62.10
2019-04-28T09:58:00.908Z,55.80
2019-04-28T10:00:27.805Z,59.40
2019-04-28T10:02:55.521Z,57.50
2019-04-28T10:05:27.398Z,55.10
2019-04-28T10:07:55.198Z,57.40
2019-04-28T10:10:25.437Z,59.10
2019-04-28T10:12:52.172Z,57.90
2019-04-28T10:15:19.946Z,52.20
2019-04-28T10:17:47.618Z,48.30
2019-04-28T10:20:15.749Z,47.80
2019-04-28T10:22:42.493Z,45.20
2019-04-28T10:25:09.105Z,48.20
2019-04-28T10:27:35.621Z,47.80
2019-04-28T10:30:05.045Z,50.40
2019-04-28T10:32:31.834Z,52.70
2019-04-28T10:34:59.833Z,55.10
2019-04-28T10:37:26.089Z,54.70
2019-04-28T10:39:54.494Z,57.10
2019-04-28T10:42:20.896Z,59.10
2019-04-28T10:45:00.377Z,61.60
2019-04-28T10:47:29.905Z,61.80
2019-04-28T10:49:57.482Z,63.60
2019-04-28T10:52:28.961Z,64.40
2019-04-28T10:58:03.319Z,67.10
2019-04-28T11:04:03.068Z,65.30
2019-04-28T11:16:45.596Z,99.90
2019-04-28T11:19:13.584Z,99.90
2019-04-28T11:21:39.847Z,99.90
2019-04-28T11:24:07.237Z,99.90
2019-04-28T11:26:35.658Z,99.90
2019-04-28T11:29:03.244Z,99.90
2019-04-28T11:31:29.915Z,99.90
2019-04-28T11:33:59.964Z,98.40
2019-04-28T11:36:27.328Z,98.90
2019-04-28T11:38:54.845Z,93.10
2019-04-28T11:41:21.356Z,97.20
2019-04-28T11:43:48.024Z,99.90
2019-04-28T11:46:16.472Z,99.30
2019-04-28T11:48:42.872Z,99.90
2019-04-28T11:51:09.476Z,99.90
2019-04-28T11:53:36.813Z,99.90
2019-04-28T11:56:03.191Z,99.60
2019-04-28T11:58:29.876Z,99.90
2019-04-28T12:00:58.836Z,99.90
2019-04-28T12:03:25.165Z,99.90
2019-04-28T12:05:52.707Z,97.40
2019-04-28T12:08:21.274Z,98.70
2019-04-28T12:10:55.528Z,91.00
2019-04-28T12:13:29.178Z,74.90
2019-04-28T12:16:06.472Z,72.80
2019-04-28T12:18:40.886Z,77.00
2019-04-28T12:21:08.680Z,86.90
2019-04-28T12:23:35.160Z,90.70
2019-04-28T12:26:03.819Z,77.50
2019-04-28T12:28:30.379Z,53.80
2019-04-28T12:30:57.969Z,53.00
2019-04-28T12:33:25.569Z,60.60
2019-04-28T12:36:13.606Z,69.40
2019-04-28T12:38:40.447Z,65.30
2019-04-28T12:41:09.146Z,65.90
2019-04-28T12:43:35.441Z,67.90
2019-04-28T12:46:02.955Z,76.30
2019-04-28T12:48:32.671Z,79.50
2019-04-28T12:51:00.413Z,90.40
2019-04-28T12:53:30.178Z,98.40
2019-04-28T12:55:57.509Z,99.90
2019-04-28T12:58:25.133Z,99.90
2019-04-28T13:00:56.470Z,82.00
2019-04-28T13:03:34.836Z,76.20
2019-04-28T13:06:05.787Z,70.30
2019-04-28T13:08:32.611Z,66.00
2019-04-28T13:11:01.668Z,70.50
2019-04-28T13:13:29.373Z,73.20
2019-04-28T13:15:57.013Z,64.20
2019-04-28T13:18:23.693Z,55.50
2019-04-28T13:20:52.681Z,52.80
2019-04-28T13:23:19.077Z,59.30
2019-04-28T13:25:46.586Z,62.40
2019-04-28T13:28:14.189Z,58.20
2019-04-28T13:30:40.621Z,54.00
2019-04-28T13:33:09.314Z,45.20
2019-04-28T13:35:35.639Z,45.20
2019-04-28T13:38:02.036Z,47.60
2019-04-28T13:40:30.302Z,55.10
2019-04-28T13:42:58.255Z,54.10
2019-04-28T13:45:27.580Z,47.20
2019-04-28T13:47:55.101Z,46.70
2019-04-28T13:50:28.088Z,47.70
2019-04-28T13:52:56.547Z,47.30
2019-04-28T13:55:27.288Z,45.90
2019-04-28T13:57:54.618Z,46.80
2019-04-28T14:00:22.977Z,52.70
2019-04-28T14:02:54.259Z,52.60
2019-04-28T14:05:32.156Z,56.40
2019-04-28T14:07:58.507Z,54.50
2019-04-28T14:10:24.986Z,46.90
2019-04-28T14:12:51.510Z,48.90
2019-04-28T14:15:17.813Z,49.20
2019-04-28T14:17:51.310Z,51.70
2019-04-28T14:20:17.650Z,47.70
2019-04-28T14:22:45.421Z,43.40
2019-04-28T14:25:12.185Z,43.20
2019-04-28T14:27:38.461Z,41.80
2019-04-28T14:30:07.755Z,46.10
2019-04-28T14:32:34.247Z,44.60
2019-04-28T14:35:00.789Z,44.70
2019-04-28T14:37:27.302Z,48.70
2019-04-28T14:39:54.008Z,48.90
2019-04-28T14:42:27.901Z,49.80
2019-04-28T14:45:09.287Z,44.10
2019-04-28T14:50:33.286Z,49.60
2019-04-28T14:53:01.690Z,47.60
2019-04-28T14:55:28.510Z,48.70
2019-04-28T14:57:54.952Z,49.30
2019-04-28T15:00:35.372Z,53.90
2019-04-28T15:03:06.507Z,56.70
2019-04-28T15:05:44.557Z,58.50
2019-04-28T15:08:31.619Z,58.50
2019-04-28T15:11:18.404Z,61.50
2019-04-28T15:13:45.041Z,61.50
2019-04-28T15:16:11.347Z,59.20
2019-04-28T15:18:37.924Z,58.10
2019-04-28T15:21:04.585Z,56.40
2019-04-28T15:23:31.194Z,57.10
2019-04-28T15:25:57.641Z,57.10
2019-04-28T15:28:24.468Z,52.10
2019-04-28T15:30:50.942Z,51.10
2019-04-28T15:33:17.514Z,53.00
2019-04-28T15:35:44.548Z,53.10
2019-04-28T15:38:11.303Z,54.90
2019-04-28T15:40:38.166Z,56.70
2019-04-28T15:43:04.698Z,56.30
2019-04-28T15:45:31.497Z,58.10
2019-04-28T15:47:58.325Z,60.10
2019-04-28T15:50:25.301Z,60.80
2019-04-28T15:52:53.122Z,62.30
2019-04-28T15:55:21.642Z,63.10
2019-04-28T15:57:49.426Z,62.30
2019-04-28T16:00:16.583Z,64.60
2019-04-28T16:02:45.154Z,63.70
2019-04-28T16:05:12.159Z,64.60
2019-04-28T16:07:38.811Z,62.10
2019-04-28T16:10:06.558Z,64.00
2019-04-28T16:12:33.345Z,64.20
2019-04-28T16:14:59.827Z,63.30
2019-04-28T16:17:26.259Z,66.90
2019-04-28T16:19:53.088Z,68.00
2019-04-28T16:22:19.823Z,66.90
2019-04-28T16:24:47.126Z,68.80
2019-04-28T16:27:13.812Z,65.80
2019-04-28T16:29:40.296Z,65.80
2019-04-28T16:32:09.717Z,66.30
2019-04-28T16:34:35.083Z,68.80
2019-04-28T16:37:01.503Z,71.80
2019-04-28T16:39:28.090Z,72.40
2019-04-28T16:41:57.435Z,72.80
2019-04-28T16:44:26.443Z,71.50
2019-04-28T16:46:52.949Z,73.70
2019-04-28T16:49:19.422Z,72.20
2019-04-28T16:51:47.237Z,72.10
2019-04-28T16:54:13.742Z,75.60
2019-04-28T16:56:59.338Z,80.90
2019-04-28T16:59:46.455Z,85.90
2019-04-28T17:02:15.162Z,84.40
2019-04-28T17:04:41.968Z,84.30
2019-04-28T17:07:08.835Z,85.00
2019-04-28T17:09:37.023Z,85.30
2019-04-28T17:12:04.584Z,84.40
2019-04-28T17:14:32.831Z,83.00
2019-04-28T17:16:59.726Z,80.90
2019-04-28T17:19:28.510Z,80.00
2019-04-28T17:21:58.136Z,77.50
2019-04-28T17:24:24.711Z,76.60
2019-04-28T17:26:53.530Z,78.10
2019-04-28T17:29:23.544Z,77.80
2019-04-28T17:31:50.515Z,71.90
2019-04-28T17:34:16.969Z,74.60
2019-04-28T17:36:43.641Z,77.70
2019-04-28T17:39:12.329Z,80.20
2019-04-28T17:41:40.613Z,82.40
2019-04-28T17:44:07.696Z,81.40
2019-04-28T17:46:34.380Z,82.80
2019-04-28T17:49:00.920Z,84.10
2019-04-28T17:51:27.670Z,88.00
2019-04-28T17:53:54.355Z,86.50
2019-04-28T17:56:20.718Z,88.10
2019-04-28T17:58:47.415Z,91.00
2019-04-28T18:01:18.947Z,93.40
2019-04-28T18:03:56.027Z,94.30
2019-04-28T18:06:24.206Z,94.90
2019-04-28T18:08:50.775Z,96.50
2019-04-28T18:11:17.829Z,98.20
2019-04-28T18:13:44.313Z,99.70
2019-04-28T18:16:27.477Z,99.90
2019-04-28T18:18:58.377Z,99.80
2019-04-28T18:21:24.925Z,99.30
2019-04-28T18:23:51.340Z,99.10
2019-04-28T18:26:17.901Z,99.90
2019-04-28T18:28:44.499Z,99.90
2019-04-28T18:31:15.170Z,99.90
2019-04-28T18:33:46.217Z,99.90
2019-04-28T18:36:14.489Z,99.90
2019-04-28T18:38:51.874Z,99.90
2019-04-28T18:41:20.152Z,99.90
2019-04-28T18:44:05.166Z,99.90
2019-04-28T18:46:31.438Z,99.90
2019-04-28T18:48:57.777Z,99.90
2019-04-28T18:51:24.474Z,99.90
2019-04-28T18:53:51.213Z,99.90
2019-04-28T18:56:17.757Z,99.90
2019-04-28T18:58:44.349Z,99.90
2019-04-28T19:01:12.791Z,99.90
2019-04-28T19:03:39.438Z,99.90
2019-04-28T19:06:05.884Z,99.90
2019-04-28T19:08:49.669Z,99.90
2019-04-28T19:11:20.949Z,99.90
2019-04-28T19:13:55.412Z,99.90
2019-04-28T19:16:40.271Z,99.90
2019-04-28T19:19:08.642Z,99.90
2019-04-28T19:21:35.108Z,99.90
2019-04-28T19:24:01.765Z,99.90
2019-04-28T19:26:28.540Z,99.90
2019-04-28T19:28:55.241Z,99.90
2019-04-28T19:31:21.625Z,99.90
2019-04-28T19:33:48.145Z,99.90
2019-04-28T19:36:14.534Z,99.90
2019-04-28T19:38:41.177Z,99.90
2019-04-28T19:41:07.589Z,99.90
2019-04-28T19:43:33.845Z,99.90
2019-04-28T19:46:03.018Z,99.90
2019-04-28T19:48:29.633Z,99.90
2019-04-28T19:50:56.150Z,99.90
2019-04-28T19:53:22.525Z,99.90
2019-04-28T19:56:07.796Z,99.90
2019-04-28T19:58:39.112Z,99.90
2019-04-28T20:01:07.344Z,99.90
2019-04-28T20:03:36.041Z,99.90
2019-04-28T20:06:02.558Z,99.90
2019-04-28T20:08:29.678Z,99.90
2019-04-28T20:10:58.208Z,99.90
2019-04-28T20:13:24.660Z,99.90
2019-04-28T20:15:52.320Z,99.90
2019-04-28T20:18:18.996Z,99.90
2019-04-28T20:20:45.658Z,99.90
2019-04-28T20:23:11.922Z,99.90
2019-04-28T20:25:38.494Z,99.90
2019-04-28T20:28:05.334Z,99.90
2019-04-28T20:30:31.821Z,99.90
2019-04-28T20:33:06.864Z,99.90
2019-04-28T20:35:35.025Z,99.90
2019-04-28T20:38:03.757Z,99.90
2019-04-28T20:40:35.053Z,99.90
2019-04-28T20:43:03.432Z,99.90
2019-04-28T20:45:30.233Z,99.90
2019-04-28T20:47:56.644Z,99.90
2019-04-28T20:50:23.944Z,99.90
2019-04-28T20:52:50.421Z,99.90
2019-04-28T20:55:16.798Z,99.90
2019-04-28T20:57:43.625Z,99.90
2019-04-28T21:00:10.586Z,99.90
2019-04-28T21:02:39.144Z,99.90
2019-04-28T21:05:06.025Z,99.90
2019-04-28T21:07:32.747Z,99.90
2019-04-28T21:10:00.053Z,99.90
2019-04-28T21:12:33.561Z,99.90
2019-04-28T21:14:59.928Z,99.90
2019-04-28T21:17:26.320Z,99.90
2019-04-28T21:19:52.975Z,99.90
2019-04-28T21:22:19.400Z,99.90
2019-04-28T21:24:45.725Z,99.90
2019-04-28T21:27:12.366Z,99.90
2019-04-28T21:29:39.096Z,99.90
2019-04-28T21:32:06.445Z,99.90
2019-04-28T21:34:33.770Z,99.90
2019-04-28T21:37:00.105Z,99.90
2019-04-28T21:39:26.765Z,99.90
2019-04-28T21:41:53.773Z,99.90
2019-04-28T21:44:34.518Z,99.90
2019-04-28T21:47:15.064Z,99.90
2019-04-28T21:49:43.672Z,99.90
2019-04-28T21:52:10.433Z,99.90
2019-04-28T21:54:37.024Z,99.90
2019-04-28T21:57:03.452Z,99.90
2019-04-28T21:59:31.974Z,99.90
2019-04-28T22:01:58.829Z,99.90
2019-04-28T22:04:25.378Z,99.90
2019-04-28T22:06:51.649Z,99.90
2019-04-28T22:09:18.325Z,99.90
2019-04-28T22:11:46.009Z,99.90
2019-04-28T22:14:12.683Z,99.90
2019-04-28T22:16:40.193Z,99.90
2019-04-28T22:19:06.939Z,99.90
2019-04-28T22:21:33.240Z,99.90
2019-04-28T22:24:10.708Z,99.90
2019-04-28T22:26:47.944Z,99.90
2019-04-28T22:29:14.529Z,99.90
2019-04-28T22:31:43.311Z,99.90
2019-04-28T22:34:12.448Z,99.90
2019-04-28T22:36:39.302Z,99.90
2019-04-28T22:39:06.354Z,99.90
2019-04-28T22:41:35.318Z,99.90
2019-04-28T22:44:05.753Z,99.90
2019-04-28T22:46:32.180Z,99.90
2019-04-28T22:49:00.699Z,99.90
2019-04-28T22:51:27.146Z,99.90
2019-04-28T22:53:53.532Z,99.90
2019-04-28T22:56:23.677Z,99.90
2019-04-28T22:58:52.071Z,99.90
2019-04-28T23:01:44.513Z,99.90
2019-04-28T23:04:15.813Z,99.90
2019-04-28T23:06:42.169Z,99.90
2019-04-28T23:09:11.515Z,99.90
2019-04-28T23:11:39.561Z,99.90
2019-04-28T23:14:07.006Z,99.90
2019-04-28T23:16:33.540Z,99.90
2019-04-28T23:19:03.410Z,99.90
2019-04-28T23:21:33.932Z,99.90
2019-04-28T23:24:03.333Z,99.90
2019-04-28T23:26:29.981Z,99.90
2019-04-28T23:28:56.537Z,99.90
2019-04-28T23:31:23.110Z,99.90
2019-04-28T23:33:51.662Z,99.90
2019-04-28T23:36:20.420Z,99.90
2019-04-28T23:38:46.661Z,99.90
2019-04-28T23:41:17.165Z,99.90
2019-04-28T23:43:45.649Z,99.90
2019-04-28T23:46:13.301Z,99.90
2019-04-28T23:48:40.001Z,99.90
2019-04-28T23:51:12.201Z,99.90
2019-04-28T23:53:44.468Z,99.90
2019-04-28T23:56:10.766Z,99.90
2019-04-28T23:58:37.506Z,99.90
